Time;durP1;ratioP1;P1;durP2;ratioP2;P2;SDS_P1;SDS_P2;PMS_P1;PMS_P2;Temp;Humidity;BMP_temperature;BMP_pressure;BME280_temperature;BME280_humidity;BME280_pressure;Samples;Min_cycle;Max_cycle;Signal;HPM_P1;HPM_P2
2022/09/07 00:00:05;;;;;;;3.67;2.25;;;;;17.90;94054.00;;;;7398778;19;20162;-74
2022/09/07 00:02:39;;;;;;;5.53;2.22;;;;;17.90;94048.00;;;;7398623;19;20485;-74
2022/09/07 00:05:16;;;;;;;5.85;2.10;;;;;18.10;94042.00;;;;7398430;19;20663;-74
2022/09/07 00:07:50;;;;;;;3.28;1.88;;;;;18.10;94042.00;;;;7398758;19;20163;-75
2022/09/07 00:10:18;;;;;;;5.35;1.70;;;;;18.10;94039.00;;;;7396327;19;20148;-75
2022/09/07 00:12:46;;;;;;;7.88;2.10;;;;;18.30;94027.00;;;;7396844;19;20141;-76
2022/09/07 00:15:19;;;;;;;7.25;2.00;;;;;18.20;94030.00;;;;7397462;19;20137;-73
2022/09/07 00:17:47;;;;;;;4.13;2.10;;;;;18.40;94017.00;;;;7397519;19;20133;-76
2022/09/07 00:20:15;;;;;;;5.53;1.73;;;;;18.40;94025.00;;;;7396521;19;20618;-74
2022/09/07 00:22:50;;;;;;;6.72;2.20;;;;;18.30;94017.00;;;;7399614;19;20139;-75
2022/09/07 00:25:18;;;;;;;7.35;1.95;;;;;18.40;94014.00;;;;7397067;19;20623;-73
2022/09/07 00:27:45;;;;;;;4.30;2.10;;;;;18.30;94010.00;;;;7396083;19;20141;-74
2022/09/07 00:30:21;;;;;;;4.15;1.90;;;;;18.20;94014.00;;;;7397514;19;20169;-75
2022/09/07 00:32:55;;;;;;;6.60;2.00;;;;;18.20;94004.00;;;;7394346;19;20187;-75
2022/09/07 00:35:29;;;;;;;10.25;2.20;;;;;18.30;93998.00;;;;7396976;19;20561;-76
2022/09/07 00:37:58;;;;;;;4.32;2.00;;;;;18.10;94004.00;;;;7397152;19;20160;-75
2022/09/07 00:40:26;;;;;;;4.32;2.17;;;;;18.10;93996.00;;;;7394423;19;20592;-75
2022/09/07 00:43:00;;;;;;;5.72;2.17;;;;;18.00;94000.00;;;;7398063;19;20149;-73
2022/09/07 00:45:27;;;;;;;4.65;2.13;;;;;17.90;94012.00;;;;7396194;19;20175;-75
2022/09/07 00:48:03;;;;;;;5.65;2.25;;;;;17.90;93988.00;;;;7396876;19;20248;-73
2022/09/07 00:50:55;;;;;;;4.03;2.13;;;;;17.80;93987.00;;;;7399402;19;20471;-74
2022/09/07 00:53:31;;;;;;;7.30;2.25;;;;;17.80;93989.00;;;;7396079;19;20144;-75
2022/09/07 00:56:07;;;;;;;6.57;2.58;;;;;18.00;93987.00;;;;7397361;19;20149;-74
2022/09/07 00:58:38;;;;;;;4.47;2.63;;;;;18.00;93990.00;;;;7399043;19;20176;-74
2022/09/07 01:01:13;;;;;;;6.75;2.55;;;;;18.00;93985.00;;;;7394429;19;20125;-75
2022/09/07 01:03:44;;;;;;;4.85;2.30;;;;;17.80;93977.00;;;;7393382;19;20180;-74
2022/09/07 01:06:18;;;;;;;5.13;2.53;;;;;17.60;93974.00;;;;7392589;19;20137;-73
2022/09/07 01:09:00;;;;;;;4.55;2.10;;;;;17.50;93973.00;;;;7398942;19;20148;-75
2022/09/07 01:11:29;;;;;;;2.70;2.10;;;;;17.50;93974.00;;;;7395105;19;20147;-73
2022/09/07 01:14:08;;;;;;;7.43;2.53;;;;;17.50;93975.00;;;;7396632;19;20140;-75
2022/09/07 01:17:00;;;;;;;3.30;2.13;;;;;17.50;93974.00;;;;7396710;19;20149;-76
2022/09/07 01:20:02;;;;;;;4.93;2.15;;;;;17.30;93976.00;;;;7395356;19;20491;-74
2022/09/07 01:22:54;;;;;;;6.07;2.50;;;;;17.30;93979.00;;;;7396220;19;20141;-73
2022/09/07 01:25:54;;;;;;;5.03;2.55;;;;;17.20;93986.00;;;;7394699;19;20495;-74
2022/09/07 01:28:27;;;;;;;10.02;2.38;;;;;17.30;93985.00;;;;7397019;19;20153;-75
2022/09/07 01:31:31;;;;;;;4.10;2.58;;;;;17.10;93996.00;;;;7397818;19;20137;-73
2022/09/07 01:34:14;;;;;;;7.10;2.83;;;;;17.10;94000.00;;;;7395518;19;20148;-74
2022/09/07 01:37:31;;;;;;;5.20;2.28;;;;;17.20;93995.00;;;;7393155;19;20134;-75
2022/09/07 01:40:12;;;;;;;7.20;2.45;;;;;17.20;93994.00;;;;7392872;19;20125;-75
2022/09/07 01:43:03;;;;;;;5.32;2.50;;;;;17.00;93991.00;;;;7394418;19;20208;-73
2022/09/07 01:45:36;;;;;;;7.10;2.50;;;;;17.00;93993.00;;;;7392869;19;20153;-76
2022/09/07 01:48:14;;;;;;;3.78;2.40;;;;;17.00;93985.00;;;;7393335;19;20137;-76
2022/09/07 01:51:01;;;;;;;5.32;2.58;;;;;16.90;93990.00;;;;7397396;19;20140;-74
2022/09/07 01:53:42;;;;;;;5.80;2.38;;;;;16.90;93991.00;;;;7394965;19;20129;-74
2022/09/07 01:56:15;;;;;;;6.00;2.22;;;;;16.80;94004.00;;;;7395764;19;20582;-74
2022/09/07 01:58:59;;;;;;;3.40;1.95;;;;;16.80;94009.00;;;;7397592;19;20144;-73
2022/09/07 02:01:54;;;;;;;8.05;1.92;;;;;16.90;94012.00;;;;7395746;19;20144;-75
2022/09/07 02:04:37;;;;;;;10.80;2.45;;;;;17.10;94013.00;;;;7393900;19;20509;-73
2022/09/07 02:07:10;;;;;;;4.93;1.80;;;;;17.00;94024.00;;;;7398010;19;20129;-75
2022/09/07 02:10:06;;;;;;;3.25;1.80;;;;;17.10;94029.00;;;;7394626;19;20141;-74
2022/09/07 02:12:53;;;;;;;4.90;1.85;;;;;17.10;94019.00;;;;7395719;19;20841;-74
2022/09/07 02:15:52;;;;;;;6.97;2.00;;;;;17.40;94030.00;;;;7392087;19;20480;-75
2022/09/07 02:18:23;;;;;;;5.90;2.20;;;;;17.50;94039.00;;;;7393536;19;20136;-75
2022/09/07 02:21:00;;;;;;;5.80;2.28;;;;;17.50;94040.00;;;;7394986;19;20162;-74
2022/09/07 02:23:35;;;;;;;5.45;2.20;;;;;17.70;94031.00;;;;7389945;19;20148;-74
2022/09/07 02:26:19;;;;;;;5.82;2.10;;;;;17.60;94032.00;;;;7393410;19;20169;-75
2022/09/07 02:28:47;;;;;;;7.45;2.15;;;;;17.50;94027.00;;;;7395257;19;20500;-75
2022/09/07 02:31:29;;;;;;;8.38;2.50;;;;;17.40;94025.00;;;;7391144;19;20210;-75
2022/09/07 02:34:03;;;;;;;8.13;2.40;;;;;17.30;94025.00;;;;7392235;19;20144;-75
2022/09/07 02:36:43;;;;;;;5.00;2.67;;;;;17.10;94027.00;;;;7394058;19;20517;-74
2022/09/07 02:39:11;;;;;;;7.20;2.35;;;;;16.80;94033.00;;;;7391626;19;20136;-73
2022/09/07 02:41:47;;;;;;;7.00;2.22;;;;;16.70;94033.00;;;;7388496;19;20603;-74
2022/09/07 02:44:30;;;;;;;4.68;2.28;;;;;16.80;94033.00;;;;7390740;19;20145;-74
2022/09/07 02:47:28;;;;;;;4.47;2.60;;;;;16.70;94033.00;;;;7395185;19;20152;-73
2022/09/07 02:49:56;;;;;;;7.05;2.20;;;;;16.70;94032.00;;;;7393080;19;20133;-74
2022/09/07 02:52:54;;;;;;;5.28;2.30;;;;;16.60;94030.00;;;;7392581;19;20166;-74
2022/09/07 02:55:53;;;;;;;7.18;2.38;;;;;16.50;94033.00;;;;7394537;19;20144;-73
2022/09/07 02:58:52;;;;;;;12.00;2.67;;;;;16.30;94028.00;;;;7400917;19;20144;-73
2022/09/07 03:02:06;;;;;;;7.32;2.53;;;;;16.00;94035.00;;;;7397190;19;20199;-73
2022/09/07 03:05:01;;;;;;;7.68;2.70;;;;;16.00;94041.00;;;;7397678;19;20172;-73
2022/09/07 03:07:38;;;;;;;4.30;2.38;;;;;15.80;94038.00;;;;7397268;19;20133;-75
2022/09/07 03:10:13;;;;;;;7.47;2.58;;;;;15.80;94041.00;;;;7400019;19;20161;-74
2022/09/07 03:12:46;;;;;;;7.85;2.50;;;;;15.50;94036.00;;;;7400290;19;20168;-75
2022/09/07 03:15:23;;;;;;;4.70;2.45;;;;;15.60;94035.00;;;;7398587;19;20148;-74
2022/09/07 03:17:52;;;;;;;17.15;3.33;;;;;15.60;94043.00;;;;7398148;19;20163;-74
2022/09/07 03:20:21;;;;;;;9.73;2.95;;;;;15.50;94030.00;;;;7399506;19;20200;-74
2022/09/07 03:22:55;;;;;;;5.97;2.80;;;;;15.60;94034.00;;;;7399899;19;20663;-73
2022/09/07 03:25:22;;;;;;;10.85;3.15;;;;;15.70;94032.00;;;;7396217;19;20148;-74
2022/09/07 03:27:50;;;;;;;10.15;3.22;;;;;15.70;94037.00;;;;7400131;19;20149;-74
2022/09/07 03:30:25;;;;;;;6.07;3.03;;;;;15.70;94037.00;;;;7400684;19;20607;-74
2022/09/07 03:32:59;;;;;;;5.68;2.60;;;;;15.70;94039.00;;;;7397449;19;20198;-74
2022/09/07 03:35:34;;;;;;;7.47;2.53;;;;;15.70;94038.00;;;;7397197;19;20160;-74
2022/09/07 03:38:02;;;;;;;5.22;2.75;;;;;15.70;94036.00;;;;7398122;19;20144;-75
2022/09/07 03:40:29;;;;;;;6.80;2.80;;;;;15.80;94031.00;;;;7398179;19;20750;-75
2022/09/07 03:43:03;;;;;;;6.88;2.70;;;;;15.90;94032.00;;;;7399986;19;20145;-75
2022/09/07 03:45:31;;;;;;;5.57;3.15;;;;;16.00;94033.00;;;;7397039;19;20156;-75
2022/09/07 03:47:58;;;;;;;6.90;2.42;;;;;16.00;94025.00;;;;7397173;19;20153;-75
2022/09/07 03:50:34;;;;;;;11.32;2.72;;;;;15.70;94025.00;;;;7398612;19;20152;-75
2022/09/07 03:53:02;;;;;;;6.38;2.53;;;;;15.60;94021.00;;;;7399685;19;20157;-75
2022/09/07 03:55:29;;;;;;;6.95;2.63;;;;;15.70;94030.00;;;;7397963;19;20141;-75
2022/09/07 03:58:04;;;;;;;7.28;2.75;;;;;15.50;94023.00;;;;7398186;19;20144;-75
2022/09/07 04:00:33;;;;;;;8.60;2.72;;;;;15.50;94023.00;;;;7397862;19;20212;-75
2022/09/07 04:03:00;;;;;;;5.57;2.60;;;;;15.60;94026.00;;;;7399489;19;20484;-73
2022/09/07 04:05:35;;;;;;;10.20;2.42;;;;;15.60;94015.00;;;;7396596;19;20507;-76
2022/09/07 04:08:02;;;;;;;7.82;2.78;;;;;15.70;94023.00;;;;7394743;19;20121;-75
2022/09/07 04:10:35;;;;;;;12.55;2.70;;;;;15.70;94018.00;;;;7397028;19;21026;-76
2022/09/07 04:13:11;;;;;;;5.80;2.63;;;;;15.60;94021.00;;;;7398760;19;20121;-76
2022/09/07 04:15:38;;;;;;;10.23;2.90;;;;;15.50;94015.00;;;;7396153;19;20145;-74
2022/09/07 04:18:05;;;;;;;10.82;2.80;;;;;15.50;94020.00;;;;7396191;19;20149;-73
2022/09/07 04:20:39;;;;;;;8.95;2.75;;;;;15.50;94018.00;;;;7397895;19;20182;-73
2022/09/07 04:23:08;;;;;;;9.98;2.83;;;;;15.70;94031.00;;;;7398338;19;20505;-73
2022/09/07 04:25:45;;;;;;;7.70;2.33;;;;;15.60;94028.00;;;;7394868;19;20214;-75
2022/09/07 04:28:20;;;;;;;4.32;2.22;;;;;15.60;94025.00;;;;7397215;19;20172;-74
2022/09/07 04:30:48;;;;;;;7.15;2.40;;;;;15.50;94022.00;;;;7397186;19;20208;-75
2022/09/07 04:33:16;;;;;;;7.25;2.88;;;;;15.40;94020.00;;;;7391866;19;20169;-74
2022/09/07 04:35:51;;;;;;;8.20;2.67;;;;;15.70;94018.00;;;;7396083;19;20586;-74
2022/09/07 04:38:18;;;;;;;5.07;2.15;;;;;15.80;94024.00;;;;7396087;19;20164;-74
2022/09/07 04:40:48;;;;;;;6.85;2.70;;;;;16.00;94014.00;;;;7394702;19;20588;-72
2022/09/07 04:43:21;;;;;;;8.18;2.50;;;;;16.00;94019.00;;;;7395078;19;20128;-74
2022/09/07 04:45:49;;;;;;;10.55;2.80;;;;;15.90;94026.00;;;;7396619;19;20493;-74
2022/09/07 04:48:19;;;;;;;7.90;2.45;;;;;15.80;94028.00;;;;7395677;19;20168;-75
2022/09/07 04:51:02;;;;;;;8.25;2.45;;;;;15.50;94034.00;;;;7394931;19;20604;-75
2022/09/07 04:53:33;;;;;;;4.60;2.42;;;;;15.40;94035.00;;;;7396732;19;20132;-74
2022/09/07 04:56:10;;;;;;;6.45;2.75;;;;;15.60;94036.00;;;;7395226;19;20144;-74
2022/09/07 04:58:43;;;;;;;12.45;3.00;;;;;15.90;94034.00;;;;7397024;19;20144;-74
2022/09/07 05:01:20;;;;;;;3.88;2.10;;;;;16.10;94034.00;;;;7395532;19;20168;-73
2022/09/07 05:03:48;;;;;;;9.32;2.70;;;;;16.20;94025.00;;;;7393334;19;20639;-73
2022/09/07 05:06:18;;;;;;;8.02;2.60;;;;;16.50;94028.00;;;;7394834;19;20145;-75
2022/09/07 05:08:53;;;;;;;6.05;2.30;;;;;16.40;94037.00;;;;7397164;19;20607;-73
2022/09/07 05:11:25;;;;;;;5.57;2.35;;;;;16.30;94027.00;;;;7393559;19;20611;-73
2022/09/07 05:14:01;;;;;;;13.98;2.70;;;;;16.20;94030.00;;;;7392920;19;20136;-74
2022/09/07 05:16:29;;;;;;;8.32;2.30;;;;;16.20;94039.00;;;;7396222;19;20141;-74
2022/09/07 05:19:01;;;;;;;9.40;2.25;;;;;16.10;94047.00;;;;7395465;19;20128;-74
2022/09/07 05:21:35;;;;;;;6.15;2.55;;;;;16.10;94045.00;;;;7392958;19;20140;-75
2022/09/07 05:24:05;;;;;;;8.30;2.63;;;;;16.30;94047.00;;;;7394468;19;20149;-74
2022/09/07 05:26:35;;;;;;;10.00;2.47;;;;;16.60;94048.00;;;;7395947;19;20718;-74
2022/09/07 05:29:10;;;;;;;7.93;2.00;;;;;16.80;94040.00;;;;7394015;19;20484;-74
2022/09/07 05:32:05;;;;;;;7.40;2.47;;;;;17.00;94046.00;;;;7393978;19;20555;-74
2022/09/07 05:34:47;;;;;;;7.18;2.00;;;;;16.90;94045.00;;;;7397261;19;20144;-74
2022/09/07 05:37:20;;;;;;;6.22;2.30;;;;;17.00;94046.00;;;;7393547;19;20635;-74
2022/09/07 05:39:55;;;;;;;9.55;2.45;;;;;17.10;94050.00;;;;7393988;19;20536;-74
2022/09/07 05:42:23;;;;;;;7.18;2.30;;;;;17.20;94050.00;;;;7394798;19;20500;-75
2022/09/07 05:44:51;;;;;;;7.63;2.47;;;;;17.30;94057.00;;;;7394591;19;20129;-74
2022/09/07 05:47:25;;;;;;;5.05;2.70;;;;;17.50;94060.00;;;;7393357;19;20793;-73
2022/09/07 05:49:53;;;;;;;8.55;2.42;;;;;17.60;94063.00;;;;7394992;19;20576;-73
2022/09/07 05:52:23;;;;;;;7.03;2.50;;;;;17.90;94053.00;;;;7396391;19;20164;-73
2022/09/07 05:54:59;;;;;;;7.10;2.58;;;;;18.10;94058.00;;;;7395441;19;20133;-75
2022/09/07 05:57:49;;;;;;;5.57;2.17;;;;;18.20;94057.00;;;;7394100;19;20137;-75
2022/09/07 06:00:24;;;;;;;5.95;2.47;;;;;18.50;94063.00;;;;7394940;19;20148;-74
2022/09/07 06:02:53;;;;;;;7.57;2.80;;;;;18.50;94051.00;;;;7396543;19;20208;-73
2022/09/07 06:05:23;;;;;;;6.90;2.30;;;;;18.60;94050.00;;;;7391929;19;20204;-74
2022/09/07 06:07:58;;;;;;;8.82;2.47;;;;;18.60;94048.00;;;;7395395;19;20161;-74
2022/09/07 06:10:32;;;;;;;5.72;2.20;;;;;18.60;94045.00;;;;7395639;19;20140;-72
2022/09/07 06:13:09;;;;;;;5.53;2.45;;;;;18.60;94063.00;;;;7396534;19;20144;-73
2022/09/07 06:15:36;;;;;;;7.40;2.28;;;;;18.40;94058.00;;;;7393770;19;20600;-75
2022/09/07 06:18:05;;;;;;;5.72;2.42;;;;;18.30;94063.00;;;;7393093;19;20196;-74
2022/09/07 06:20:43;;;;;;;5.05;2.40;;;;;18.20;94056.00;;;;7396373;19;20437;-73
2022/09/07 06:23:11;;;;;;;7.78;2.40;;;;;18.20;94059.00;;;;7393122;19;20137;-73
2022/09/07 06:25:47;;;;;;;6.18;2.05;;;;;18.10;94067.00;;;;7393941;19;20168;-74
2022/09/07 06:28:35;;;;;;;5.32;2.40;;;;;17.80;94063.00;;;;7390953;19;20566;-75
2022/09/07 06:31:11;;;;;;;6.82;2.42;;;;;17.80;94067.00;;;;7391407;19;20654;-73
2022/09/07 06:33:54;;;;;;;5.03;2.60;;;;;17.70;94063.00;;;;7391551;19;20256;-74
2022/09/07 06:36:35;;;;;;;9.30;2.53;;;;;17.70;94068.00;;;;7390912;19;20125;-76
2022/09/07 06:39:10;;;;;;;5.15;2.30;;;;;17.70;94064.00;;;;7390928;19;20144;-73
2022/09/07 06:41:38;;;;;;;4.45;2.70;;;;;17.80;94064.00;;;;7389672;19;20669;-76
2022/09/07 06:44:26;;;;;;;6.13;2.50;;;;;18.00;94059.00;;;;7387776;19;20148;-76
2022/09/07 06:47:00;;;;;;;7.82;2.67;;;;;18.00;94065.00;;;;7393318;19;20722;-76
2022/09/07 06:49:27;;;;;;;8.38;2.35;;;;;18.00;94072.00;;;;7391335;19;20121;-75
2022/09/07 06:51:55;;;;;;;6.55;2.58;;;;;18.10;94061.00;;;;7389755;19;20580;-75
2022/09/07 06:54:38;;;;;;;11.35;2.95;;;;;18.60;94057.00;;;;7393324;19;20160;-75
2022/09/07 06:57:32;;;;;;;5.50;2.50;;;;;19.00;94056.00;;;;7391715;19;20143;-74
2022/09/07 07:00:06;;;;;;;10.80;2.85;;;;;19.50;94057.00;;;;7390512;19;20153;-76
2022/09/07 07:02:34;;;;;;;10.77;3.00;;;;;19.90;94046.00;;;;7392064;19;20737;-75
2022/09/07 07:05:05;;;;;;;8.02;2.90;;;;;20.40;94049.00;;;;7393584;19;20639;-76
2022/09/07 07:07:39;;;;;;;11.25;2.67;;;;;20.60;94039.00;;;;7392246;19;20614;-74
2022/09/07 07:10:11;;;;;;;7.50;2.53;;;;;20.70;94053.00;;;;7392277;19;20623;-75
2022/09/07 07:12:40;;;;;;;11.02;2.40;;;;;20.90;94049.00;;;;7394800;19;20141;-76
2022/09/07 07:15:14;;;;;;;6.43;2.70;;;;;21.10;94052.00;;;;7390323;19;20626;-75
2022/09/07 07:17:41;;;;;;;4.38;2.20;;;;;21.20;94054.00;;;;7390474;19;20169;-74
2022/09/07 07:20:14;;;;;;;7.40;2.60;;;;;21.30;94055.00;;;;7393693;19;20144;-75
2022/09/07 07:22:54;;;;;;;5.70;2.65;;;;;21.50;94063.00;;;;7394230;19;20630;-74
2022/09/07 07:25:22;;;;;;;13.60;2.72;;;;;21.60;94071.00;;;;7389563;19;20149;-74
2022/09/07 07:27:56;;;;;;;9.23;2.85;;;;;21.70;94077.00;;;;7392007;19;20148;-74
2022/09/07 07:30:46;;;;;;;10.40;2.72;;;;;21.60;94080.00;;;;7393783;19;20185;-75
2022/09/07 07:33:41;;;;;;;10.52;2.33;;;;;21.60;94082.00;;;;7389075;19;20180;-74
2022/09/07 07:36:22;;;;;;;5.90;2.30;;;;;21.60;94089.00;;;;7391295;19;20149;-74
2022/09/07 07:38:56;;;;;;;9.15;2.70;;;;;21.70;94094.00;;;;7393073;19;20584;-73
2022/09/07 07:41:29;;;;;;;6.55;2.33;;;;;21.70;94091.00;;;;7392559;19;20141;-73
2022/09/07 07:44:19;;;;;;;7.68;2.92;;;;;21.80;94102.00;;;;7399961;19;20168;-74
2022/09/07 07:46:50;;;;;;;7.35;2.53;;;;;21.90;94100.00;;;;7398219;19;20117;-76
2022/09/07 07:49:25;;;;;;;6.45;2.60;;;;;21.90;94101.00;;;;7397709;19;20473;-74
2022/09/07 07:51:54;;;;;;;11.02;2.67;;;;;22.00;94095.00;;;;7399262;19;20141;-74
2022/09/07 07:54:43;;;;;;;6.10;2.53;;;;;22.10;94100.00;;;;7398215;19;20129;-73
2022/09/07 07:57:19;;;;;;;5.43;2.40;;;;;22.40;94105.00;;;;7397694;19;20203;-74
2022/09/07 07:59:47;;;;;;;6.78;2.58;;;;;22.60;94108.00;;;;7399040;19;20556;-75
2022/09/07 08:02:15;;;;;;;4.97;2.38;;;;;22.60;94107.00;;;;7398945;19;20140;-74
2022/09/07 08:04:51;;;;;;;6.95;2.47;;;;;22.80;94108.00;;;;7397414;19;20176;-74
2022/09/07 08:07:19;;;;;;;4.90;2.28;;;;;23.00;94111.00;;;;7398202;19;20500;-74
2022/09/07 08:09:59;;;;;;;9.52;2.20;;;;;23.10;94106.00;;;;7398687;19;20148;-72
2022/09/07 08:12:33;;;;;;;8.27;2.80;;;;;23.10;94099.00;;;;7398746;19;20137;-74
2022/09/07 08:15:03;;;;;;;8.18;2.10;;;;;23.20;94095.00;;;;7400075;19;20155;-73
2022/09/07 08:17:31;;;;;;;7.95;2.42;;;;;23.10;94102.00;;;;7396510;19;20176;-74
2022/09/07 08:20:09;;;;;;;7.45;2.60;;;;;23.10;94100.00;;;;7398737;19;20588;-74
2022/09/07 08:22:39;;;;;;;7.68;2.78;;;;;23.20;94104.00;;;;7399932;19;20160;-74
2022/09/07 08:25:07;;;;;;;5.15;2.40;;;;;23.50;94102.00;;;;7402294;19;20140;-75
2022/09/07 08:27:40;;;;;;;7.30;2.20;;;;;23.60;94109.00;;;;7399001;19;20616;-74
2022/09/07 08:30:09;;;;;;;11.02;2.67;;;;;23.70;94105.00;;;;7396180;19;20139;-74
2022/09/07 08:32:39;;;;;;;11.25;2.60;;;;;23.80;94104.00;;;;7394744;19;20655;-75
2022/09/07 08:35:20;;;;;;;9.25;2.30;;;;;23.80;94118.00;;;;7396239;19;20144;-74
2022/09/07 08:37:48;;;;;;;4.70;2.30;;;;;23.90;94104.00;;;;7398747;19;20147;-75
2022/09/07 08:40:21;;;;;;;6.85;2.15;;;;;24.00;94117.00;;;;7399090;19;20595;-76
2022/09/07 08:43:24;;;;;;;8.40;2.60;;;;;24.20;94117.00;;;;7394490;19;20140;-74
2022/09/07 08:46:05;;;;;;;7.80;2.20;;;;;23.80;94135.00;;;;7397168;19;20152;-75
2022/09/07 08:48:34;;;;;;;9.43;2.20;;;;;23.30;94121.00;;;;7393049;19;20143;-75
2022/09/07 08:51:21;;;;;;;6.03;2.20;;;;;23.30;94141.00;;;;7397949;19;20167;-75
2022/09/07 08:53:51;;;;;;;8.27;2.35;;;;;23.30;94134.00;;;;7396307;19;20172;-75
2022/09/07 08:56:36;;;;;;;10.57;2.25;;;;;23.10;94138.00;;;;7396583;19;20154;-74
2022/09/07 08:59:28;;;;;;;4.20;2.20;;;;;22.90;94125.00;;;;7398747;19;20136;-74
2022/09/07 09:02:07;;;;;;;7.72;2.58;;;;;22.80;94115.00;;;;7394484;19;20145;-75
2022/09/07 09:04:54;;;;;;;4.40;2.25;;;;;23.40;94127.00;;;;7396370;19;20785;-74
2022/09/07 09:08:10;;;;;;;6.80;2.67;;;;;23.20;94131.00;;;;7395323;19;20592;-75
2022/09/07 09:10:59;;;;;;;8.35;2.15;;;;;22.90;94124.00;;;;7396650;19;20172;-75
2022/09/07 09:13:35;;;;;;;6.68;1.88;;;;;22.70;94131.00;;;;7395761;19;20643;-74
2022/09/07 09:16:32;;;;;;;6.93;2.50;;;;;22.50;94140.00;;;;7396615;19;20596;-74
2022/09/07 09:19:54;;;;;;;5.63;2.78;;;;;22.20;94135.00;;;;7393382;19;20125;-73
2022/09/07 09:22:25;;;;;;;6.70;2.28;;;;;21.90;94131.00;;;;7396336;19;20136;-74
2022/09/07 09:25:19;;;;;;;7.10;2.38;;;;;21.90;94140.00;;;;7397479;19;20179;-74
2022/09/07 09:27:51;;;;;;;5.28;2.60;;;;;21.80;94148.00;;;;7394633;19;20144;-74
2022/09/07 09:30:27;;;;;;;3.50;2.13;;;;;21.60;94152.00;;;;7396495;19;20645;-76
2022/09/07 09:33:27;;;;;;;8.05;2.38;;;;;21.40;94133.00;;;;7396632;19;20210;-75
2022/09/07 09:36:02;;;;;;;5.18;2.35;;;;;21.70;94142.00;;;;7396091;19;20135;-74
2022/09/07 09:38:42;;;;;;;4.72;2.20;;;;;21.80;94142.00;;;;7395063;19;20141;-73
2022/09/07 09:41:17;;;;;;;5.65;2.13;;;;;22.30;94126.00;;;;7392250;19;20239;-75
2022/09/07 09:44:13;;;;;;;4.97;2.15;;;;;23.50;94125.00;;;;7394681;19;20148;-74
2022/09/07 09:46:53;;;;;;;5.97;2.10;;;;;23.20;94116.00;;;;7394929;19;20164;-76
2022/09/07 09:49:54;;;;;;;6.47;2.00;;;;;22.60;94118.00;;;;7391805;19;20137;-73
2022/09/07 09:52:32;;;;;;;3.55;1.83;;;;;22.50;94112.00;;;;7394539;19;20655;-75
2022/09/07 09:55:26;;;;;;;6.68;2.08;;;;;22.80;94113.00;;;;7395963;19;20195;-75
2022/09/07 09:58:27;;;;;;;5.68;2.20;;;;;22.70;94098.00;;;;7393811;19;20121;-75
2022/09/07 10:01:25;;;;;;;3.20;1.95;;;;;24.10;94084.00;;;;7391145;19;20607;-75
2022/09/07 10:04:23;;;;;;;4.28;1.90;;;;;25.00;94076.00;;;;7389328;19;20181;-75
2022/09/07 10:06:59;;;;;;;5.38;1.88;;;;;25.60;94070.00;;;;7395288;19;20129;-74
2022/09/07 10:09:48;;;;;;;5.13;2.28;;;;;25.50;94068.00;;;;7393805;19;20210;-74
2022/09/07 10:12:29;;;;;;;6.63;2.13;;;;;25.90;94066.00;;;;7393121;19;20144;-74
2022/09/07 10:15:05;;;;;;;6.18;1.88;;;;;26.10;94061.00;;;;7395564;19;20141;-74
2022/09/07 10:17:38;;;;;;;5.28;1.90;;;;;26.60;94066.00;;;;7392974;19;20125;-74
2022/09/07 10:20:14;;;;;;;3.53;1.83;;;;;26.40;94069.00;;;;7391937;19;20630;-74
2022/09/07 10:22:51;;;;;;;6.15;1.90;;;;;26.20;94066.00;;;;7394191;19;20630;-75
2022/09/07 10:25:40;;;;;;;2.28;1.52;;;;;26.30;94069.00;;;;7390981;19;20141;-73
2022/09/07 10:28:09;;;;;;;3.70;1.95;;;;;26.50;94061.00;;;;7390992;19;20153;-74
2022/09/07 10:31:11;;;;;;;5.38;1.92;;;;;26.00;94062.00;;;;7394380;19;20124;-74
2022/09/07 10:33:53;;;;;;;4.95;1.90;;;;;25.40;94056.00;;;;7391765;19;20493;-75
2022/09/07 10:37:13;;;;;;;6.47;2.05;;;;;26.00;94065.00;;;;7394424;19;20151;-75
2022/09/07 10:39:42;;;;;;;3.65;1.92;;;;;26.40;94055.00;;;;7391811;19;20487;-75
2022/09/07 10:42:27;;;;;;;6.22;2.28;;;;;26.20;94080.00;;;;7392628;19;20144;-75
2022/09/07 10:44:55;;;;;;;1.92;1.42;;;;;25.90;94059.00;;;;7393483;19;20159;-74
2022/09/07 10:48:01;;;;;;;3.40;1.83;;;;;26.00;94060.00;;;;7389244;19;20472;-75
2022/09/07 10:50:51;;;;;;;3.80;1.80;;;;;26.20;94067.00;;;;7391069;19;20133;-75
2022/09/07 10:53:57;;;;;;;3.90;1.65;;;;;26.60;94057.00;;;;7390734;19;20552;-75
2022/09/07 10:57:07;;;;;;;3.65;1.88;;;;;25.80;94076.00;;;;7391881;19;20627;-74
2022/09/07 11:00:11;;;;;;;4.43;1.83;;;;;24.70;94075.00;;;;7390508;19;20151;-74
2022/09/07 11:02:51;;;;;;;6.57;1.83;;;;;24.20;94063.00;;;;7391960;19;20969;-74
2022/09/07 11:06:17;;;;;;;6.43;1.85;;;;;25.00;94055.00;;;;7387963;19;20140;-75
2022/09/07 11:09:15;;;;;;;3.08;1.90;;;;;25.20;94070.00;;;;7392546;19;20168;-75
2022/09/07 11:12:02;;;;;;;6.13;1.90;;;;;24.70;94073.00;;;;7392098;19;20599;-75
2022/09/07 11:14:56;;;;;;;4.53;2.28;;;;;24.90;94051.00;;;;7391884;19;20616;-75
2022/09/07 11:17:36;;;;;;;6.00;1.95;;;;;25.60;94043.00;;;;7398159;19;20132;-74
2022/09/07 11:20:13;;;;;;;6.10;1.90;;;;;26.20;94032.00;;;;7395558;19;20150;-74
2022/09/07 11:22:54;;;;;;;6.95;1.90;;;;;26.80;94035.00;;;;7400276;19;20144;-75
2022/09/07 11:25:34;;;;;;;6.43;1.52;;;;;26.90;94024.00;;;;7395333;19;20177;-74
2022/09/07 11:28:16;;;;;;;4.38;1.88;;;;;26.60;94024.00;;;;7388883;19;20157;-75
2022/09/07 11:30:56;;;;;;;3.95;1.70;;;;;26.90;94033.00;;;;7395276;19;20148;-74
2022/09/07 11:33:46;;;;;;;3.22;1.77;;;;;26.80;94024.00;;;;7391090;19;20233;-74
2022/09/07 11:36:43;;;;;;;5.57;1.88;;;;;27.60;94024.00;;;;7394110;19;20207;-76
2022/09/07 11:39:22;;;;;;;3.08;1.83;;;;;27.70;94025.00;;;;7391748;19;20149;-74
2022/09/07 11:42:03;;;;;;;5.95;2.00;;;;;27.10;94021.00;;;;7392145;19;20140;-75
2022/09/07 11:45:20;;;;;;;3.35;1.90;;;;;26.80;94037.00;;;;7392929;19;20212;-74
2022/09/07 11:47:59;;;;;;;4.50;1.50;;;;;26.70;94015.00;;;;7390916;19;20121;-76
2022/09/07 11:50:38;;;;;;;4.85;1.63;;;;;27.00;94013.00;;;;7392975;19;20144;-75
2022/09/07 11:53:15;;;;;;;2.55;1.67;;;;;27.40;94003.00;;;;7394346;19;20155;-76
2022/09/07 11:55:56;;;;;;;4.03;1.85;;;;;27.60;94014.00;;;;7392154;19;20166;-75
2022/09/07 11:58:38;;;;;;;5.88;1.45;;;;;27.90;94019.00;;;;7393483;19;20164;-74
2022/09/07 12:01:29;;;;;;;2.85;1.70;;;;;27.90;94022.00;;;;7389373;19;20172;-75
2022/09/07 12:04:23;;;;;;;4.70;1.85;;;;;27.30;94022.00;;;;7388778;19;20203;-74
2022/09/07 12:07:22;;;;;;;4.00;2.00;;;;;26.50;94026.00;;;;7392428;19;20264;-73
2022/09/07 12:10:11;;;;;;;5.32;1.90;;;;;26.10;94025.00;;;;7390358;19;20550;-73
2022/09/07 12:13:06;;;;;;;3.75;1.48;;;;;25.80;94023.00;;;;7394003;19;20140;-77
2022/09/07 12:15:34;;;;;;;6.45;1.55;;;;;26.40;94017.00;;;;7389841;19;20173;-76
2022/09/07 12:18:09;;;;;;;3.08;1.50;;;;;26.00;94017.00;;;;7391986;19;20148;-73
2022/09/07 12:20:41;;;;;;;1.90;1.50;;;;;26.10;94020.00;;;;7390404;19;20167;-74
2022/09/07 12:23:15;;;;;;;2.53;1.50;;;;;26.80;94003.00;;;;7388825;19;20618;-74
2022/09/07 12:25:47;;;;;;;3.47;1.63;;;;;27.40;93994.00;;;;7390533;19;20166;-76
2022/09/07 12:28:24;;;;;;;6.00;1.75;;;;;27.30;94007.00;;;;7388087;19;20165;-74
2022/09/07 12:31:03;;;;;;;4.00;2.22;;;;;26.80;94013.00;;;;7391572;19;20208;-75
2022/09/07 12:33:39;;;;;;;4.38;1.75;;;;;26.50;94020.00;;;;7389686;19;20555;-74
2022/09/07 12:36:26;;;;;;;3.70;1.65;;;;;26.20;94019.00;;;;7390338;19;20216;-74
2022/09/07 12:39:04;;;;;;;4.30;1.63;;;;;25.50;94022.00;;;;7392479;19;20168;-73
2022/09/07 12:41:44;;;;;;;3.35;1.58;;;;;25.40;94023.00;;;;7390343;19;20148;-74
2022/09/07 12:44:24;;;;;;;3.10;1.63;;;;;26.70;94001.00;;;;7389619;19;20771;-74
2022/09/07 12:47:27;;;;;;;3.45;1.33;;;;;27.50;94013.00;;;;7390918;19;20145;-75
2022/09/07 12:49:57;;;;;;;2.63;1.73;;;;;27.10;94008.00;;;;7389383;19;20601;-73
2022/09/07 12:52:48;;;;;;;5.30;1.75;;;;;26.70;93990.00;;;;7389041;19;20619;-73
2022/09/07 12:55:36;;;;;;;1.35;1.25;;;;;27.20;93983.00;;;;7387543;19;20571;-73
2022/09/07 12:58:59;;;;;;;4.97;1.80;;;;;27.90;93982.00;;;;7389864;19;20757;-76
2022/09/07 13:01:33;;;;;;;3.17;1.45;;;;;27.60;93995.00;;;;7388046;19;20938;-73
2022/09/07 13:04:22;;;;;;;3.28;1.60;;;;;26.90;93981.00;;;;7387464;19;20165;-75
2022/09/07 13:07:28;;;;;;;3.30;1.48;;;;;27.60;93974.00;;;;7391271;19;20607;-76
2022/09/07 13:10:22;;;;;;;3.33;1.70;;;;;28.00;93982.00;;;;7390444;19;20153;-75
2022/09/07 13:12:51;;;;;;;4.18;1.35;;;;;27.10;93991.00;;;;7392739;19;20129;-76
2022/09/07 13:16:09;;;;;;;5.75;1.63;;;;;26.50;93988.00;;;;7389593;19;20628;-74